Time;durP1;ratioP1;P1;durP2;ratioP2;P2;SDS_P1;SDS_P2;PMS_P1;PMS_P2;Temp;Humidity;BMP_temperature;BMP_pressure;BME280_temperature;BME280_humidity;BME280_pressure;Samples;Min_cycle;Max_cycle;Signal;HPM_P1;HPM_P2
2021/07/31 00:00:11;;;;;;;1.60;1.20;;;26.20;55.20;;;;;;5024312;28;20170;-64
2021/07/31 00:02:36;;;;;;;1.85;1.33;;;26.10;55.10;;;;;;5026699;28;20038;-60
2021/07/31 00:05:03;;;;;;;1.92;1.40;;;26.20;55.20;;;;;;5025572;28;20049;-60
2021/07/31 00:07:28;;;;;;;1.75;1.20;;;26.10;55.10;;;;;;5015750;28;20033;-60
2021/07/31 00:09:54;;;;;;;2.10;1.40;;;26.10;55.10;;;;;;5021883;28;20440;-61
2021/07/31 00:12:20;;;;;;;1.52;1.30;;;26.10;55.10;;;;;;5014319;28;20036;-64
2021/07/31 00:14:45;;;;;;;2.08;1.30;;;26.10;55.10;;;;;;5012914;28;20107;-63
2021/07/31 00:17:11;;;;;;;1.45;1.20;;;26.10;55.10;;;;;;5019904;28;20049;-63
2021/07/31 00:19:37;;;;;;;2.45;1.40;;;26.20;55.20;;;;;;5017856;28;20025;-61
2021/07/31 00:22:02;;;;;;;1.98;1.30;;;26.20;55.20;;;;;;5018738;28;20069;-60
2021/07/31 00:24:29;;;;;;;2.42;1.20;;;26.10;55.10;;;;;;5014540;28;20113;-62
2021/07/31 00:26:55;;;;;;;2.92;1.77;;;26.10;55.10;;;;;;5025010;28;20060;-64
2021/07/31 00:29:21;;;;;;;1.77;1.20;;;26.10;55.10;;;;;;5011222;28;20025;-64
2021/07/31 00:31:47;;;;;;;1.98;1.40;;;26.10;55.10;;;;;;5025013;28;20040;-62
2021/07/31 00:34:12;;;;;;;1.92;1.45;;;26.10;55.10;;;;;;5024821;28;20067;-63
2021/07/31 00:36:38;;;;;;;1.83;1.40;;;26.10;55.10;;;;;;5026712;28;20437;-62
2021/07/31 00:39:04;;;;;;;2.00;1.30;;;26.10;55.10;;;;;;5024755;28;20396;-61
2021/07/31 00:41:29;;;;;;;2.00;1.40;;;26.10;55.20;;;;;;5013449;28;20129;-64
2021/07/31 00:43:55;;;;;;;1.63;1.30;;;26.10;55.20;;;;;;5015073;28;20065;-60
2021/07/31 00:46:21;;;;;;;2.17;1.30;;;26.10;55.20;;;;;;5021983;28;20614;-63
2021/07/31 00:48:47;;;;;;;1.90;1.30;;;26.10;55.20;;;;;;5022447;28;20033;-62
2021/07/31 00:51:14;;;;;;;2.88;1.33;;;26.10;55.20;;;;;;5018452;28;20037;-61
2021/07/31 00:53:40;;;;;;;2.33;1.40;;;26.10;55.20;;;;;;5023083;28;20476;-62
2021/07/31 00:56:06;;;;;;;1.90;1.50;;;26.10;55.20;;;;;;5026204;28;20029;-63
2021/07/31 00:58:32;;;;;;;2.00;1.33;;;26.10;55.20;;;;;;5019194;28;20113;-62
2021/07/31 01:00:58;;;;;;;1.77;1.27;;;26.00;55.10;;;;;;5018040;28;20034;-61
2021/07/31 01:03:23;;;;;;;1.90;1.30;;;26.10;55.20;;;;;;5021872;28;20029;-61
2021/07/31 01:05:50;;;;;;;1.70;1.35;;;26.10;55.20;;;;;;5007308;28;20025;-66
2021/07/31 01:08:16;;;;;;;1.88;1.30;;;26.10;55.70;;;;;;5024819;28;20021;-66
2021/07/31 01:10:42;;;;;;;3.22;1.50;;;26.10;55.20;;;;;;5026328;28;20034;-61
2021/07/31 01:13:09;;;;;;;1.63;1.20;;;26.10;55.20;;;;;;5012976;28;20523;-63
2021/07/31 01:15:34;;;;;;;1.60;1.30;;;26.00;55.60;;;;;;5016741;28;20041;-65
2021/07/31 01:18:00;;;;;;;1.65;1.40;;;26.00;55.10;;;;;;5017850;28;20029;-60
2021/07/31 01:20:25;;;;;;;1.77;1.40;;;26.00;55.10;;;;;;5018683;28;20041;-62
2021/07/31 01:22:51;;;;;;;2.55;1.52;;;26.00;55.10;;;;;;5024871;28;20029;-63
2021/07/31 01:25:17;;;;;;;1.60;1.27;;;26.00;55.10;;;;;;5026142;28;20090;-61
2021/07/31 01:27:43;;;;;;;2.35;1.50;;;26.00;55.20;;;;;;5017923;28;20493;-65
2021/07/31 01:30:09;;;;;;;1.45;1.20;;;26.00;55.20;;;;;;5015728;28;20033;-62
2021/07/31 01:32:35;;;;;;;2.03;1.60;;;26.00;55.20;;;;;;5024373;28;20029;-63
2021/07/31 01:35:01;;;;;;;1.92;1.30;;;26.00;55.10;;;;;;5023391;28;20045;-62
2021/07/31 01:37:26;;;;;;;2.00;1.38;;;26.00;55.20;;;;;;5018131;28;20109;-65
2021/07/31 01:39:55;;;;;;;1.95;1.27;;;26.00;55.20;;;;;;5013128;28;20083;-60
2021/07/31 01:42:21;;;;;;;1.83;1.40;;;26.00;55.20;;;;;;5011240;28;20141;-65
2021/07/31 01:44:46;;;;;;;2.05;1.42;;;26.00;55.20;;;;;;5013475;28;20146;-64
2021/07/31 01:47:12;;;;;;;1.80;1.30;;;26.00;55.20;;;;;;5025528;28;20022;-61
2021/07/31 01:49:38;;;;;;;2.10;1.40;;;25.90;55.10;;;;;;5014139;28;20104;-61
2021/07/31 01:52:03;;;;;;;1.60;1.30;;;26.00;55.20;;;;;;5007178;28;20026;-60
2021/07/31 01:54:29;;;;;;;3.13;1.40;;;25.90;55.10;;;;;;5015481;28;20029;-60
2021/07/31 01:56:54;;;;;;;1.90;1.40;;;26.00;55.20;;;;;;5034053;28;20079;-63
2021/07/31 01:59:20;;;;;;;1.65;1.30;;;26.00;55.70;;;;;;5021773;28;20029;-61
2021/07/31 02:01:45;;;;;;;1.70;1.25;;;25.90;55.10;;;;;;5017872;28;20045;-62
2021/07/31 02:04:11;;;;;;;2.17;1.40;;;26.00;55.20;;;;;;5026784;28;20030;-62
2021/07/31 02:06:36;;;;;;;1.67;1.35;;;26.00;55.20;;;;;;5022032;28;20030;-61
2021/07/31 02:09:02;;;;;;;1.85;1.33;;;25.90;55.10;;;;;;5019757;28;20727;-62
2021/07/31 02:11:28;;;;;;;2.03;1.60;;;25.90;55.10;;;;;;5023309;28;20083;-64
2021/07/31 02:13:53;;;;;;;2.17;1.38;;;25.90;55.10;;;;;;5018572;28;20030;-61
2021/07/31 02:16:24;;;;;;;1.70;1.30;;;25.90;55.10;;;;;;5017249;28;20033;-64
2021/07/31 02:18:50;;;;;;;1.48;1.10;;;25.90;55.10;;;;;;5027937;28;20026;-60
2021/07/31 02:21:17;;;;;;;2.05;1.20;;;25.90;55.10;;;;;;5027038;28;20108;-61
2021/07/31 02:23:43;;;;;;;1.58;1.20;;;25.90;55.10;;;;;;5020448;28;20060;-61
2021/07/31 02:26:08;;;;;;;2.60;1.40;;;25.90;55.10;;;;;;5017566;28;20149;-60
2021/07/31 02:28:34;;;;;;;1.65;1.20;;;25.90;55.10;;;;;;5024619;28;20108;-61
2021/07/31 02:30:59;;;;;;;1.80;1.35;;;25.90;55.10;;;;;;5018969;28;20142;-65
2021/07/31 02:33:25;;;;;;;2.05;1.35;;;25.90;55.20;;;;;;5019562;28;20030;-60
2021/07/31 02:35:50;;;;;;;1.90;1.35;;;25.90;55.20;;;;;;5025653;28;20107;-62
2021/07/31 02:38:16;;;;;;;1.83;1.30;;;25.90;55.20;;;;;;5029472;28;20056;-62
2021/07/31 02:40:42;;;;;;;1.83;1.27;;;25.90;55.20;;;;;;5029860;28;20488;-64
2021/07/31 02:43:07;;;;;;;1.75;1.23;;;25.90;55.10;;;;;;5018170;28;20145;-60
2021/07/31 02:45:36;;;;;;;2.35;1.40;;;25.80;55.10;;;;;;5018532;28;20029;-60
2021/07/31 02:48:02;;;;;;;1.60;1.30;;;25.90;55.10;;;;;;5028934;28;20037;-62
2021/07/31 02:50:29;;;;;;;1.98;1.35;;;25.90;55.20;;;;;;5028939;28;20174;-60
2021/07/31 02:52:55;;;;;;;1.77;1.30;;;25.90;55.20;;;;;;5017743;28;20034;-61
2021/07/31 02:55:20;;;;;;;1.77;1.30;;;25.90;55.20;;;;;;5028835;28;20108;-62
2021/07/31 02:57:46;;;;;;;1.90;1.30;;;25.90;55.20;;;;;;5023558;28;20057;-64
2021/07/31 03:00:12;;;;;;;1.90;1.40;;;25.90;55.20;;;;;;5012567;28;20117;-64
2021/07/31 03:02:37;;;;;;;1.35;1.10;;;25.80;55.10;;;;;;5016532;28;20033;-61
2021/07/31 03:05:03;;;;;;;2.00;1.30;;;25.90;55.20;;;;;;5028846;28;20026;-60
2021/07/31 03:07:31;;;;;;;1.80;1.38;;;25.90;55.20;;;;;;5028763;28;20029;-62
2021/07/31 03:09:57;;;;;;;1.60;1.30;;;25.90;55.20;;;;;;5028605;28;20106;-60
2021/07/31 03:12:23;;;;;;;1.88;1.30;;;25.90;55.20;;;;;;5025006;28;20453;-62
2021/07/31 03:14:49;;;;;;;1.58;1.27;;;25.80;55.10;;;;;;5025734;28;20064;-63
2021/07/31 03:17:16;;;;;;;1.40;1.20;;;25.90;55.20;;;;;;5028266;28;20036;-63
2021/07/31 03:19:43;;;;;;;1.80;1.40;;;25.90;55.20;;;;;;5028714;28;20048;-63
2021/07/31 03:22:08;;;;;;;1.58;1.13;;;25.80;55.10;;;;;;5025966;28;20068;-61
2021/07/31 03:24:34;;;;;;;1.80;1.30;;;25.80;55.10;;;;;;5020089;28;20030;-61
2021/07/31 03:27:00;;;;;;;1.55;1.20;;;25.80;55.20;;;;;;5008435;28;20419;-61
2021/07/31 03:29:26;;;;;;;1.70;1.30;;;25.80;55.10;;;;;;5020735;28;20184;-62
2021/07/31 03:31:52;;;;;;;1.50;1.30;;;25.80;55.10;;;;;;5027918;28;20102;-63
2021/07/31 03:34:21;;;;;;;2.25;1.50;;;25.80;55.10;;;;;;5020466;28;20038;-62
2021/07/31 03:36:51;;;;;;;1.77;1.30;;;25.80;55.20;;;;;;5024153;28;20043;-62
2021/07/31 03:39:22;;;;;;;1.63;1.23;;;25.80;55.10;;;;;;5009538;28;20224;-61
2021/07/31 03:41:49;;;;;;;1.65;1.25;;;25.80;55.10;;;;;;5011986;28;20137;-64
2021/07/31 03:44:14;;;;;;;2.10;1.45;;;25.80;55.10;;;;;;5021071;28;20029;-62
2021/07/31 03:46:48;;;;;;;2.05;1.30;;;25.80;55.20;;;;;;5021405;28;20053;-62
2021/07/31 03:49:14;;;;;;;1.67;1.38;;;25.80;55.20;;;;;;5027228;28;20018;-59
2021/07/31 03:51:40;;;;;;;1.48;1.30;;;25.80;55.10;;;;;;5025089;28;20021;-61
2021/07/31 03:54:06;;;;;;;1.75;1.30;;;25.80;55.10;;;;;;5028253;28;20066;-63
2021/07/31 03:56:32;;;;;;;1.95;1.30;;;25.80;55.10;;;;;;5013170;28;20556;-67
2021/07/31 03:58:57;;;;;;;2.35;1.60;;;25.80;55.10;;;;;;5011231;28;20029;-60
2021/07/31 04:01:24;;;;;;;1.98;1.30;;;25.80;55.20;;;;;;5023763;28;20037;-60
2021/07/31 04:03:54;;;;;;;1.48;1.20;;;25.80;55.20;;;;;;5027326;28;20061;-60
2021/07/31 04:06:20;;;;;;;1.80;1.30;;;25.80;55.20;;;;;;5026038;28;20034;-61
2021/07/31 04:08:46;;;;;;;1.63;1.30;;;25.80;55.20;;;;;;5024080;28;20033;-62
2021/07/31 04:11:11;;;;;;;2.10;1.50;;;25.80;55.20;;;;;;5025032;28;20037;-63
2021/07/31 04:13:37;;;;;;;1.80;1.40;;;25.80;55.20;;;;;;5018679;28;20502;-65
2021/07/31 04:16:09;;;;;;;1.92;1.50;;;25.80;55.20;;;;;;5015883;28;20091;-63
2021/07/31 04:18:35;;;;;;;2.58;1.40;;;25.80;55.20;;;;;;5026047;28;20120;-60
2021/07/31 04:21:06;;;;;;;1.55;1.00;;;25.80;55.20;;;;;;5023612;28;20137;-62
2021/07/31 04:23:31;;;;;;;1.63;1.20;;;25.80;55.20;;;;;;5036301;28;20033;-63
2021/07/31 04:25:57;;;;;;;2.63;1.20;;;25.80;55.20;;;;;;5027194;28;20030;-62
2021/07/31 04:28:22;;;;;;;1.85;1.30;;;25.70;55.10;;;;;;5022498;28;20022;-61
2021/07/31 04:30:48;;;;;;;1.90;1.23;;;25.80;55.30;;;;;;5024311;28;20029;-61
2021/07/31 04:33:14;;;;;;;1.38;1.17;;;25.70;55.20;;;;;;5011025;28;20141;-62
2021/07/31 04:35:39;;;;;;;1.70;1.33;;;25.70;55.10;;;;;;5025022;28;20104;-62
2021/07/31 04:38:05;;;;;;;1.80;1.50;;;25.70;55.20;;;;;;5020625;28;20044;-65
2021/07/31 04:40:31;;;;;;;1.63;1.30;;;25.70;55.10;;;;;;5024253;28;20080;-62
2021/07/31 04:42:56;;;;;;;1.83;1.40;;;25.70;55.20;;;;;;5019722;28;20057;-62
2021/07/31 04:45:22;;;;;;;2.10;1.40;;;25.70;55.20;;;;;;5019687;28;20039;-61
2021/07/31 04:47:47;;;;;;;2.15;1.58;;;25.70;55.10;;;;;;5026687;28;20157;-63
2021/07/31 04:50:14;;;;;;;1.70;1.20;;;25.70;55.10;;;;;;5025521;28;20715;-63
2021/07/31 04:52:40;;;;;;;2.00;1.35;;;25.70;55.10;;;;;;5007897;28;20022;-61
2021/07/31 04:55:06;;;;;;;1.67;1.25;;;25.70;55.10;;;;;;5008286;28;20036;-62
2021/07/31 04:57:31;;;;;;;1.83;1.48;;;25.70;55.10;;;;;;5012162;28;20037;-62
2021/07/31 04:59:57;;;;;;;2.08;1.42;;;25.70;55.20;;;;;;5026480;28;20342;-63
2021/07/31 05:02:23;;;;;;;1.85;1.30;;;25.70;55.20;;;;;;5025460;28;20033;-59
2021/07/31 05:04:48;;;;;;;1.75;1.30;;;25.70;55.20;;;;;;5017866;28;20072;-61
2021/07/31 05:07:14;;;;;;;1.85;1.27;;;25.70;55.20;;;;;;5009209;28;20033;-62
2021/07/31 05:09:39;;;;;;;1.77;1.30;;;25.70;55.20;;;;;;5027494;28;20428;-61
2021/07/31 05:12:05;;;;;;;1.73;1.33;;;25.70;55.20;;;;;;5023425;28;20110;-64
2021/07/31 05:14:31;;;;;;;2.17;1.30;;;25.70;55.70;;;;;;5026108;28;20049;-62
2021/07/31 05:16:56;;;;;;;1.88;1.40;;;25.70;55.20;;;;;;5026600;28;20144;-64
2021/07/31 05:19:22;;;;;;;1.85;1.30;;;25.70;55.20;;;;;;5027105;28;20044;-61
2021/07/31 05:21:48;;;;;;;1.88;1.40;;;25.70;55.20;;;;;;5020223;28;20113;-62
2021/07/31 05:24:14;;;;;;;2.08;1.50;;;25.70;55.20;;;;;;5007353;28;20084;-60
2021/07/31 05:26:40;;;;;;;1.77;1.40;;;25.70;55.20;;;;;;5013472;28;20033;-61
2021/07/31 05:29:07;;;;;;;1.90;1.40;;;25.70;55.20;;;;;;5023370;28;20758;-60
2021/07/31 05:31:33;;;;;;;1.50;1.30;;;25.70;55.20;;;;;;5025681;28;20044;-63
2021/07/31 05:33:59;;;;;;;1.70;1.27;;;25.70;55.20;;;;;;5022016;28;20044;-61
2021/07/31 05:36:25;;;;;;;1.48;1.25;;;25.70;55.20;;;;;;5017795;28;20460;-60
2021/07/31 05:38:51;;;;;;;1.90;1.40;;;25.60;55.10;;;;;;5026999;28;20079;-62
2021/07/31 05:41:19;;;;;;;2.03;1.50;;;25.70;55.20;;;;;;5024249;28;20041;-63
2021/07/31 05:43:46;;;;;;;2.03;1.40;;;25.60;55.10;;;;;;5017465;28;20057;-61
2021/07/31 05:46:17;;;;;;;1.77;1.30;;;25.60;55.20;;;;;;5011250;28;20120;-65
2021/07/31 05:48:43;;;;;;;1.70;1.30;;;25.60;55.10;;;;;;5025548;28;20026;-61
2021/07/31 05:51:15;;;;;;;2.03;1.50;;;25.60;55.20;;;;;;5024530;28;20049;-63
2021/07/31 05:53:40;;;;;;;1.95;1.35;;;25.60;55.10;;;;;;5016245;28;20033;-62
2021/07/31 05:56:07;;;;;;;1.55;1.27;;;25.60;55.10;;;;;;5020837;28;20096;-61
2021/07/31 05:58:33;;;;;;;1.95;1.30;;;25.60;55.10;;;;;;5027458;28;20036;-62
2021/07/31 06:00:59;;;;;;;1.55;1.25;;;25.60;55.10;;;;;;5019643;28;20050;-62
2021/07/31 06:03:24;;;;;;;1.70;1.30;;;25.60;55.10;;;;;;5019684;28;20030;-61
2021/07/31 06:05:50;;;;;;;1.67;1.23;;;25.60;55.10;;;;;;5020018;28;20033;-61
2021/07/31 06:08:15;;;;;;;1.98;1.13;;;25.60;55.10;;;;;;5028843;28;20021;-60
2021/07/31 06:10:41;;;;;;;1.70;1.10;;;25.60;55.10;;;;;;5029642;28;20044;-64
2021/07/31 06:13:07;;;;;;;1.60;1.20;;;25.60;55.60;;;;;;5019149;28;20123;-64
2021/07/31 06:15:32;;;;;;;2.08;1.50;;;25.60;55.10;;;;;;5020916;28;20029;-63
2021/07/31 06:17:58;;;;;;;1.52;1.25;;;25.60;55.10;;;;;;5025417;28;20135;-63
2021/07/31 06:20:24;;;;;;;1.38;1.20;;;25.60;55.10;;;;;;5025979;28;20040;-62
2021/07/31 06:22:50;;;;;;;2.03;1.20;;;25.60;55.10;;;;;;5025541;28;20031;-62
2021/07/31 06:25:15;;;;;;;1.90;1.30;;;25.60;55.10;;;;;;5029157;28;20029;-60
2021/07/31 06:27:41;;;;;;;1.95;1.42;;;25.60;55.10;;;;;;5024852;28;20072;-66
2021/07/31 06:30:08;;;;;;;1.50;1.20;;;25.60;55.10;;;;;;5022750;28;20155;-61
2021/07/31 06:32:34;;;;;;;2.13;1.30;;;25.60;55.00;;;;;;5009735;28;20022;-62
2021/07/31 06:34:59;;;;;;;1.50;1.20;;;25.60;55.10;;;;;;5011466;28;20461;-64
2021/07/31 06:37:25;;;;;;;1.73;1.30;;;25.50;55.00;;;;;;5020395;28;20090;-62
2021/07/31 06:39:51;;;;;;;1.63;1.25;;;25.50;55.00;;;;;;5029941;28;20037;-61
2021/07/31 06:42:16;;;;;;;1.88;1.38;;;25.50;55.00;;;;;;5026477;28;20152;-61
2021/07/31 06:44:42;;;;;;;1.60;1.20;;;25.60;55.00;;;;;;5025740;28;20132;-62
2021/07/31 06:47:07;;;;;;;1.30;1.00;;;25.60;55.10;;;;;;5025373;28;20634;-62
2021/07/31 06:49:33;;;;;;;1.65;1.20;;;25.50;55.00;;;;;;5029571;28;20025;-60
2021/07/31 06:51:58;;;;;;;1.60;1.23;;;25.50;55.00;;;;;;5027364;28;20041;-61
2021/07/31 06:54:24;;;;;;;2.13;1.33;;;25.50;55.00;;;;;;5019730;28;20045;-59
2021/07/31 06:56:50;;;;;;;1.88;1.23;;;25.50;55.00;;;;;;5019275;28;20053;-62
2021/07/31 06:59:15;;;;;;;1.55;1.20;;;25.50;55.00;;;;;;5028007;28;20052;-60
2021/07/31 07:01:41;;;;;;;2.13;1.30;;;25.50;55.00;;;;;;5027348;28;20045;-62
2021/07/31 07:04:06;;;;;;;1.75;1.25;;;25.50;55.00;;;;;;5026433;28;20030;-62
2021/07/31 07:06:32;;;;;;;2.25;1.30;;;25.50;55.50;;;;;;5022241;28;20032;-62
2021/07/31 07:08:57;;;;;;;1.33;1.10;;;25.50;54.90;;;;;;5017900;28;20022;-62
2021/07/31 07:11:23;;;;;;;1.50;1.20;;;25.50;54.90;;;;;;5011403;28;20472;-60
2021/07/31 07:13:49;;;;;;;1.20;1.02;;;25.50;54.90;;;;;;5017035;28;20072;-60
2021/07/31 07:16:14;;;;;;;1.67;1.15;;;25.50;54.90;;;;;;5026383;28;20040;-61
2021/07/31 07:18:40;;;;;;;1.58;1.20;;;25.50;54.90;;;;;;5018107;28;20672;-60
2021/07/31 07:21:08;;;;;;;1.67;1.30;;;25.50;55.00;;;;;;5009851;28;20369;-62
2021/07/31 07:23:34;;;;;;;1.70;1.10;;;25.50;54.90;;;;;;5018767;28;20026;-63
2021/07/31 07:26:00;;;;;;;1.60;1.10;;;25.50;54.90;;;;;;5014836;28;20026;-63
2021/07/31 07:28:25;;;;;;;2.13;1.30;;;25.50;54.90;;;;;;5019447;28;20116;-61
2021/07/31 07:30:51;;;;;;;1.48;1.00;;;25.50;54.90;;;;;;5027138;28;20099;-62
2021/07/31 07:33:17;;;;;;;1.77;1.27;;;25.50;54.90;;;;;;5019992;28;20022;-62
2021/07/31 07:35:42;;;;;;;1.27;1.02;;;25.50;54.90;;;;;;5011084;28;20052;-64
2021/07/31 07:38:08;;;;;;;1.40;1.00;;;25.50;54.90;;;;;;5022644;28;20040;-62
2021/07/31 07:40:35;;;;;;;1.98;1.30;;;25.50;54.90;;;;;;5020551;28;20037;-63
2021/07/31 07:43:01;;;;;;;1.83;1.10;;;25.50;54.90;;;;;;5019734;28;20056;-62
2021/07/31 07:45:27;;;;;;;1.92;1.27;;;25.50;54.90;;;;;;5028382;28;20021;-61
2021/07/31 07:47:53;;;;;;;2.20;1.17;;;25.50;54.90;;;;;;5025524;28;20109;-60
2021/07/31 07:50:18;;;;;;;1.50;1.10;;;25.50;54.90;;;;;;5028922;28;20427;-63
2021/07/31 07:52:44;;;;;;;1.48;1.17;;;25.50;54.90;;;;;;5009297;28;20029;-63
2021/07/31 07:55:10;;;;;;;2.08;1.17;;;25.50;54.90;;;;;;5026685;28;20026;-61
2021/07/31 07:57:39;;;;;;;1.77;1.10;;;25.50;54.90;;;;;;5023899;28;20112;-61
2021/07/31 08:00:07;;;;;;;1.88;1.20;;;25.50;54.90;;;;;;5015636;28;20144;-61
2021/07/31 08:02:33;;;;;;;2.20;1.10;;;25.50;54.90;;;;;;5016881;28;20021;-62
2021/07/31 08:04:59;;;;;;;1.50;1.13;;;25.50;54.90;;;;;;5018862;28;20033;-62
2021/07/31 08:07:25;;;;;;;2.05;1.20;;;25.50;54.90;;;;;;5018015;28;20047;-60
2021/07/31 08:09:50;;;;;;;2.22;1.20;;;25.50;54.90;;;;;;5020335;28;20126;-62
2021/07/31 08:12:17;;;;;;;1.50;0.98;;;25.50;54.80;;;;;;5017096;28;20108;-61
2021/07/31 08:14:42;;;;;;;1.45;1.15;;;25.50;54.90;;;;;;5013308;28;20041;-62
2021/07/31 08:17:08;;;;;;;1.48;1.10;;;25.50;54.80;;;;;;5015020;28;20037;-62
2021/07/31 08:19:34;;;;;;;2.05;1.20;;;25.50;54.80;;;;;;5014694;28;20037;-63
2021/07/31 08:22:00;;;;;;;2.58;1.23;;;25.50;54.80;;;;;;5023160;28;20552;-64
2021/07/31 08:24:25;;;;;;;1.70;1.13;;;25.50;54.80;;;;;;5016468;28;20036;-61
2021/07/31 08:26:51;;;;;;;1.70;1.20;;;25.50;54.80;;;;;;5016978;28;20053;-62
2021/07/31 08:29:16;;;;;;;2.45;1.13;;;25.50;54.80;;;;;;5015491;28;20043;-62
2021/07/31 08:31:42;;;;;;;1.10;1.00;;;25.50;54.80;;;;;;5009281;28;20046;-62
2021/07/31 08:34:08;;;;;;;1.55;1.10;;;25.50;54.80;;;;;;5025299;28;20115;-65
2021/07/31 08:36:34;;;;;;;1.58;1.10;;;25.50;54.80;;;;;;5022911;28;20120;-62
2021/07/31 08:39:00;;;;;;;1.52;1.00;;;25.50;54.80;;;;;;5013360;28;20124;-62
2021/07/31 08:41:27;;;;;;;1.80;1.20;;;25.50;54.80;;;;;;5017215;28;20125;-62
2021/07/31 08:43:54;;;;;;;1.52;1.02;;;25.50;54.70;;;;;;5012753;28;20037;-62
2021/07/31 08:46:21;;;;;;;1.42;1.20;;;25.50;55.20;;;;;;5022103;28;20049;-63
2021/07/31 08:48:47;;;;;;;1.15;1.00;;;25.50;54.60;;;;;;5017871;28;20084;-63
2021/07/31 08:51:15;;;;;;;2.03;1.15;;;25.50;54.60;;;;;;5013880;28;20032;-61
2021/07/31 08:53:42;;;;;;;1.70;1.20;;;25.50;54.60;;;;;;5014946;28;20037;-63
2021/07/31 08:56:07;;;;;;;1.75;1.15;;;25.50;54.50;;;;;;5021673;28;20056;-62
2021/07/31 08:58:33;;;;;;;2.08;1.50;;;25.50;54.50;;;;;;5023236;28;20400;-60
2021/07/31 09:00:59;;;;;;;1.20;0.95;;;25.50;54.40;;;;;;5009389;28;20107;-63
2021/07/31 09:03:25;;;;;;;1.70;1.00;;;25.50;54.30;;;;;;5008709;28;20037;-61
2021/07/31 09:05:50;;;;;;;2.28;1.20;;;25.50;54.20;;;;;;5017351;28;20022;-62
2021/07/31 09:08:16;;;;;;;1.48;1.10;;;25.50;54.20;;;;;;5020591;28;20030;-62
2021/07/31 09:10:44;;;;;;;1.73;1.20;;;25.50;54.60;;;;;;5018315;28;20107;-61
2021/07/31 09:13:12;;;;;;;2.00;1.20;;;25.50;54.10;;;;;;5018314;28;20038;-61
2021/07/31 09:15:54;;;;;;;1.45;1.05;;;25.50;54.10;;;;;;5017297;28;20040;-63
2021/07/31 09:18:34;;;;;;;1.60;1.10;;;25.50;54.10;;;;;;5022224;28;20030;-62
2021/07/31 09:21:00;;;;;;;1.70;1.25;;;25.50;54.00;;;;;;5024438;28;20599;-62
2021/07/31 09:23:52;;;;;;;1.67;1.20;;;25.50;54.00;;;;;;5018419;28;20122;-62
2021/07/31 09:26:23;;;;;;;1.45;1.05;;;25.50;53.80;;;;;;5018914;28;20326;-63
2021/07/31 09:28:59;;;;;;;2.88;1.10;;;25.50;53.40;;;;;;5020192;28;20112;-62
2021/07/31 09:31:25;;;;;;;2.00;1.10;;;25.50;50.90;;;;;;5019463;28;20052;-62
2021/07/31 09:33:52;;;;;;;2.08;1.08;;;25.50;50.00;;;;;;5016154;28;20159;-63
2021/07/31 09:36:17;;;;;;;2.33;1.10;;;25.40;49.20;;;;;;5028210;28;20037;-61
2021/07/31 09:38:48;;;;;;;2.13;1.13;;;25.40;48.50;;;;;;5018247;28;20083;-62
2021/07/31 09:41:28;;;;;;;2.50;1.40;;;25.40;48.10;;;;;;5025546;28;20037;-63
2021/07/31 09:44:15;;;;;;;3.00;1.23;;;25.40;47.70;;;;;;5020456;28;20809;-62
2021/07/31 09:46:53;;;;;;;2.75;1.30;;;25.40;47.10;;;;;;5019372;28;20031;-62
2021/07/31 09:49:21;;;;;;;2.85;1.15;;;25.40;47.30;;;;;;5026072;28;20033;-62
2021/07/31 09:51:52;;;;;;;3.72;1.20;;;25.30;47.20;;;;;;5028655;28;20048;-61
2021/07/31 09:54:20;;;;;;;2.13;1.10;;;25.20;46.10;;;;;;5019227;28;20191;-61
2021/07/31 09:56:48;;;;;;;1.83;1.08;;;25.30;47.20;;;;;;5014278;28;20586;-65
2021/07/31 09:59:16;;;;;;;2.13;1.10;;;25.20;47.20;;;;;;5025471;28;20105;-62
2021/07/31 10:01:45;;;;;;;3.00;1.20;;;25.20;47.30;;;;;;5018897;28;20472;-62
2021/07/31 10:04:11;;;;;;;2.75;1.20;;;25.20;47.40;;;;;;5027445;28;20033;-64
2021/07/31 10:06:37;;;;;;;1.75;1.00;;;25.20;47.50;;;;;;5017343;28;20037;-62
2021/07/31 10:09:05;;;;;;;2.40;1.30;;;25.20;47.40;;;;;;5013656;28;20044;-62
2021/07/31 10:11:38;;;;;;;2.17;1.30;;;25.20;47.20;;;;;;5026973;28;20773;-64
2021/07/31 10:14:06;;;;;;;2.22;1.20;;;25.10;47.30;;;;;;5021372;28;20403;-62
2021/07/31 10:16:34;;;;;;;2.38;1.20;;;25.10;47.30;;;;;;5023244;28;20022;-61
2021/07/31 10:19:05;;;;;;;2.40;1.35;;;25.20;47.30;;;;;;5017694;28;20381;-63
2021/07/31 10:21:35;;;;;;;2.70;1.27;;;25.10;47.20;;;;;;5018279;28;20030;-65
2021/07/31 10:24:04;;;;;;;;;;;25.10;47.30;;;;;;5027985;28;20049;-61
2021/07/31 10:26:33;;;;;;;1.73;1.10;;;25.10;47.00;;;;;;5027277;28;19913;-62
2021/07/31 10:29:27;;;;;;;1.55;1.00;;;25.10;47.10;;;;;;5007180;28;20030;-61
2021/07/31 10:31:54;;;;;;;2.20;1.10;;;25.10;46.90;;;;;;5024682;28;20128;-62
2021/07/31 10:34:45;;;;;;;2.85;1.20;;;25.10;46.80;;;;;;5023983;28;20112;-62
2021/07/31 10:37:32;;;;;;;3.22;1.05;;;25.10;46.40;;;;;;5025375;28;20060;-63
2021/07/31 10:40:33;;;;;;;2.33;1.15;;;25.10;45.90;;;;;;5024902;28;20112;-62
2021/07/31 10:42:58;;;;;;;1.65;1.00;;;25.10;46.20;;;;;;5011435;28;20048;-61
2021/07/31 10:45:30;;;;;;;2.05;1.00;;;25.10;46.40;;;;;;5026439;28;20036;-64
2021/07/31 10:48:01;;;;;;;2.13;1.10;;;25.10;46.50;;;;;;5015603;28;20073;-62
2021/07/31 10:50:27;;;;;;;2.60;1.10;;;25.10;46.60;;;;;;5019068;28;20083;-63
2021/07/31 10:53:08;;;;;;;2.13;1.10;;;25.10;46.50;;;;;;5021403;28;20408;-62
2021/07/31 10:55:37;;;;;;;1.85;1.05;;;25.10;46.40;;;;;;5024536;28;20025;-63
2021/07/31 10:58:10;;;;;;;2.08;1.25;;;25.10;46.50;;;;;;5018483;28;20029;-65
2021/07/31 11:00:39;;;;;;;2.33;1.25;;;25.10;46.50;;;;;;5022261;28;20038;-64
2021/07/31 11:03:27;;;;;;;2.35;1.40;;;25.10;46.30;;;;;;5023759;28;20116;-63
2021/07/31 11:05:55;;;;;;;1.60;1.00;;;25.10;46.30;;;;;;5026666;28;20026;-64
2021/07/31 11:08:22;;;;;;;1.80;1.17;;;25.10;46.60;;;;;;5018901;28;20072;-62
2021/07/31 11:10:55;;;;;;;1.98;1.00;;;25.10;46.80;;;;;;5017415;28;20029;-64
2021/07/31 11:13:21;;;;;;;1.48;1.00;;;25.10;47.00;;;;;;5023556;28;20128;-63
2021/07/31 11:16:17;;;;;;;1.55;0.90;;;25.10;47.30;;;;;;5020299;28;20417;-63
2021/07/31 11:18:47;;;;;;;1.92;1.10;;;25.10;47.50;;;;;;5011030;28;20037;-64
2021/07/31 11:21:27;;;;;;;2.90;1.48;;;25.10;47.80;;;;;;5034744;28;20048;-63
2021/07/31 11:24:06;;;;;;;1.42;1.00;;;25.10;48.00;;;;;;5019118;28;20426;-66
2021/07/31 11:26:37;;;;;;;2.15;1.30;;;25.10;48.10;;;;;;5019956;28;20035;-61
2021/07/31 11:29:17;;;;;;;1.33;0.90;;;25.10;48.30;;;;;;5020328;28;20092;-64
2021/07/31 11:32:04;;;;;;;1.90;1.20;;;25.10;48.50;;;;;;5021502;28;20120;-62
2021/07/31 11:34:40;;;;;;;1.88;1.00;;;25.10;48.60;;;;;;5025181;28;20100;-62
2021/07/31 11:37:07;;;;;;;2.08;1.10;;;25.10;48.80;;;;;;5018406;28;20045;-63
2021/07/31 11:39:33;;;;;;;3.10;1.45;;;25.10;48.90;;;;;;5020751;28;20041;-63
2021/07/31 11:41:59;;;;;;;1.90;1.20;;;25.10;49.00;;;;;;5020087;28;20446;-66
2021/07/31 11:44:36;;;;;;;2.05;1.00;;;25.20;49.10;;;;;;5011355;28;20120;-61
2021/07/31 11:47:03;;;;;;;1.88;1.00;;;25.20;49.10;;;;;;5022928;28;20034;-63
2021/07/31 11:49:33;;;;;;;3.33;1.00;;;25.20;49.20;;;;;;5021256;28;20033;-64
2021/07/31 11:52:01;;;;;;;1.60;0.90;;;25.20;49.30;;;;;;5022189;28;20041;-63
2021/07/31 11:54:28;;;;;;;2.08;1.20;;;25.20;49.40;;;;;;5024031;28;20037;-61
2021/07/31 11:56:56;;;;;;;1.48;0.80;;;25.20;49.50;;;;;;5025072;28;20029;-64
2021/07/31 11:59:27;;;;;;;1.60;0.90;;;25.20;49.60;;;;;;5022976;28;20034;-61
2021/07/31 12:01:57;;;;;;;1.45;0.90;;;25.20;49.60;;;;;;5013517;28;20037;-64
2021/07/31 12:04:47;;;;;;;3.08;1.00;;;25.20;49.70;;;;;;5017216;28;20074;-62
2021/07/31 12:07:25;;;;;;;2.67;1.10;;;25.30;49.80;;;;;;5023878;28;20729;-64
2021/07/31 12:10:02;;;;;;;1.52;1.00;;;25.30;49.90;;;;;;5010857;28;20110;-65
2021/07/31 12:12:32;;;;;;;2.15;1.00;;;25.30;50.00;;;;;;5022701;28;20074;-65
2021/07/31 12:15:17;;;;;;;2.53;1.05;;;25.30;50.10;;;;;;5024498;28;20049;-63
2021/07/31 12:18:09;;;;;;;1.55;0.90;;;25.30;50.20;;;;;;5019736;28;20088;-63
2021/07/31 12:20:39;;;;;;;1.83;0.95;;;25.30;50.20;;;;;;5016046;28;20053;-66
2021/07/31 12:23:07;;;;;;;2.53;1.10;;;25.30;50.20;;;;;;5021773;28;20430;-69
2021/07/31 12:25:34;;;;;;;2.10;0.98;;;25.30;50.30;;;;;;5017266;28;20708;-65
2021/07/31 12:28:10;;;;;;;2.65;1.10;;;25.30;50.40;;;;;;5011944;28;20464;-63
2021/07/31 12:30:37;;;;;;;2.85;1.10;;;25.30;50.40;;;;;;5023328;28;20038;-64
2021/07/31 12:33:06;;;;;;;1.63;0.88;;;25.30;50.50;;;;;;5009695;28;20106;-63
2021/07/31 12:35:57;;;;;;;1.77;1.10;;;25.30;50.50;;;;;;5022695;28;20120;-62
2021/07/31 12:38:27;;;;;;;2.60;0.98;;;25.30;50.50;;;;;;5021501;28;20032;-64
2021/07/31 12:40:55;;;;;;;2.20;1.10;;;25.30;50.50;;;;;;5020486;28;20104;-64
2021/07/31 12:43:23;;;;;;;1.50;0.90;;;25.30;50.50;;;;;;5020474;28;20041;-61
2021/07/31 12:45:55;;;;;;;2.05;0.95;;;25.30;50.50;;;;;;5025648;28;20037;-63
2021/07/31 12:48:21;;;;;;;1.33;0.90;;;25.40;50.70;;;;;;5025376;28;20029;-64
2021/07/31 12:50:47;;;;;;;1.20;0.85;;;25.40;50.70;;;;;;5025255;28;20461;-67